createdAt,value
2023-01-04T00:01:52.315Z,7.68
2023-01-04T00:04:18.865Z,5.90
2023-01-04T00:06:45.415Z,5.60
2023-01-04T00:09:12.039Z,5.43
2023-01-04T00:11:38.698Z,5.50
2023-01-04T00:14:05.277Z,6.45
2023-01-04T00:16:31.965Z,9.77
2023-01-04T00:18:58.807Z,6.97
2023-01-04T00:21:28.204Z,7.60
2023-01-04T00:23:56.842Z,8.15
2023-01-04T00:26:28.651Z,6.30
2023-01-04T00:29:04.590Z,7.72
2023-01-04T00:31:31.726Z,5.15
2023-01-04T00:34:00.954Z,8.80
2023-01-04T00:36:31.195Z,6.50
2023-01-04T00:39:08.974Z,5.68
2023-01-04T00:44:26.286Z,7.53
2023-01-04T00:46:53.975Z,4.40
2023-01-04T00:49:20.649Z,7.07
2023-01-04T00:51:47.241Z,5.25
2023-01-04T00:54:15.332Z,5.95
2023-01-04T00:56:42.674Z,5.82
2023-01-04T00:59:11.919Z,7.38
2023-01-04T01:01:39.748Z,5.85
2023-01-04T01:04:06.701Z,4.63
2023-01-04T01:06:34.491Z,6.03
2023-01-04T01:09:01.894Z,5.30
2023-01-04T01:11:29.526Z,6.50
2023-01-04T01:13:57.478Z,5.78
2023-01-04T01:16:51.894Z,5.95
2023-01-04T01:19:13.139Z,6.10
2023-01-04T01:21:39.671Z,4.00
2023-01-04T01:24:06.998Z,4.80
2023-01-04T01:26:33.597Z,4.38
2023-01-04T01:29:00.205Z,5.70
2023-01-04T01:31:29.059Z,5.35
2023-01-04T01:33:57.016Z,4.82
2023-01-04T01:36:26.103Z,5.60
2023-01-04T01:38:53.533Z,5.05
2023-01-04T01:41:24.253Z,5.13
2023-01-04T01:44:01.105Z,8.23
2023-01-04T01:46:31.877Z,4.18
2023-01-04T01:49:05.694Z,7.07
2023-01-04T01:51:34.265Z,5.40
2023-01-04T01:54:08.910Z,6.25
2023-01-04T01:56:38.108Z,4.68
2023-01-04T01:59:05.129Z,7.15
2023-01-04T02:01:33.396Z,6.35
2023-01-04T02:04:00.169Z,5.38
2023-01-04T02:06:34.723Z,5.28
2023-01-04T02:09:02.159Z,4.93
2023-01-04T02:11:28.895Z,5.13
2023-01-04T02:14:17.079Z,5.18
2023-01-04T02:17:04.606Z,5.10
2023-01-04T02:20:02.297Z,5.85
2023-01-04T02:22:42.781Z,5.15
2023-01-04T02:25:24.648Z,6.25
2023-01-04T02:28:02.460Z,5.57
2023-01-04T02:30:52.176Z,6.30
2023-01-04T02:33:28.124Z,6.20
2023-01-04T02:36:09.725Z,4.25
2023-01-04T02:39:01.259Z,4.80
2023-01-04T02:41:52.289Z,6.72
2023-01-04T02:44:53.853Z,5.93
2023-01-04T02:47:46.887Z,6.97
2023-01-04T02:50:32.126Z,6.35
2023-01-04T02:53:04.641Z,4.82
2023-01-04T02:55:43.223Z,6.65
2023-01-04T02:58:18.139Z,6.43
2023-01-04T03:01:23.185Z,5.65
2023-01-04T03:04:16.093Z,6.20
2023-01-04T03:07:09.605Z,5.80
2023-01-04T03:09:42.909Z,6.20
2023-01-04T03:12:32.739Z,7.55
2023-01-04T03:15:19.915Z,7.40
2023-01-04T03:17:59.204Z,7.25
2023-01-04T03:20:31.591Z,7.53
2023-01-04T03:23:32.949Z,7.10
2023-01-04T03:26:28.535Z,7.72
2023-01-04T03:29:18.877Z,6.22
2023-01-04T03:32:16.197Z,6.28
2023-01-04T03:35:01.368Z,7.55
2023-01-04T03:38:24.410Z,7.10
2023-01-04T03:41:19.304Z,7.80
2023-01-04T03:44:13.585Z,7.75
2023-01-04T03:47:08.203Z,8.32
2023-01-04T03:50:00.678Z,8.18
2023-01-04T03:52:31.006Z,8.60
2023-01-04T03:54:58.886Z,8.90
2023-01-04T03:57:26.524Z,8.88
2023-01-04T04:00:00.218Z,9.02
2023-01-04T04:02:30.563Z,8.93
2023-01-04T04:05:15.765Z,9.43
2023-01-04T04:08:01.039Z,7.90
2023-01-04T04:10:30.234Z,7.90
2023-01-04T04:12:56.669Z,8.48
2023-01-04T04:15:23.215Z,7.88
2023-01-04T04:17:49.706Z,6.72
2023-01-04T04:20:16.499Z,7.03
2023-01-04T04:22:43.443Z,7.60
2023-01-04T04:25:10.235Z,7.22
2023-01-04T04:27:36.798Z,6.32
2023-01-04T04:30:04.337Z,7.43
2023-01-04T04:32:30.812Z,6.60
2023-01-04T04:34:57.577Z,7.40
2023-01-04T04:37:25.192Z,6.80
2023-01-04T04:39:51.750Z,7.50
2023-01-04T04:42:18.322Z,6.78
2023-01-04T04:44:44.797Z,6.47
2023-01-04T04:47:11.348Z,6.68
2023-01-04T04:49:37.878Z,7.07
2023-01-04T04:52:04.474Z,6.85
2023-01-04T04:54:31.044Z,7.57
2023-01-04T04:56:57.637Z,6.68
2023-01-04T04:59:24.132Z,6.50
2023-01-04T05:01:50.799Z,7.43
2023-01-04T05:04:19.720Z,6.35
2023-01-04T05:06:48.706Z,6.07
2023-01-04T05:09:15.999Z,6.60
2023-01-04T05:12:01.827Z,6.55
2023-01-04T05:14:28.551Z,6.10
2023-01-04T05:16:55.302Z,8.48
2023-01-04T05:19:21.962Z,6.65
2023-01-04T05:21:48.460Z,5.78
2023-01-04T05:24:15.087Z,6.00
2023-01-04T05:26:41.564Z,5.78
2023-01-04T05:29:28.015Z,6.25
2023-01-04T05:31:54.813Z,7.25
2023-01-04T05:34:22.394Z,5.93
2023-01-04T05:36:49.158Z,8.70
2023-01-04T05:39:15.689Z,6.43
2023-01-04T05:42:00.711Z,8.57
2023-01-04T05:44:29.934Z,7.20
2023-01-04T05:46:56.470Z,8.48
2023-01-04T05:49:22.973Z,8.52
2023-01-04T05:51:49.541Z,7.72
2023-01-04T05:54:21.176Z,9.65
2023-01-04T05:56:48.235Z,7.28
2023-01-04T05:59:16.237Z,7.68
2023-01-04T06:01:42.876Z,7.55
2023-01-04T06:04:09.633Z,7.85
2023-01-04T06:06:36.343Z,8.35
2023-01-04T06:09:02.928Z,8.00
2023-01-04T06:11:29.419Z,7.18
2023-01-04T06:13:55.906Z,7.40
2023-01-04T06:16:22.456Z,7.40
2023-01-04T06:18:49.067Z,5.78
2023-01-04T06:21:15.653Z,5.95
2023-01-04T06:23:42.690Z,6.00
2023-01-04T06:26:09.346Z,7.10
2023-01-04T06:28:40.766Z,6.32
2023-01-04T06:31:09.610Z,6.80
2023-01-04T06:36:02.855Z,6.80
2023-01-04T06:38:30.510Z,5.88
2023-01-04T06:40:57.045Z,5.63
2023-01-04T06:43:23.647Z,6.03
2023-01-04T06:45:50.289Z,5.75
2023-01-04T06:48:18.242Z,5.88
2023-01-04T06:50:45.355Z,8.50
2023-01-04T06:53:11.956Z,6.30
2023-01-04T06:55:38.458Z,6.13
2023-01-04T06:58:05.083Z,4.93
2023-01-04T07:00:31.831Z,9.63
2023-01-04T07:03:13.856Z,7.28
2023-01-04T07:05:42.256Z,6.88
2023-01-04T07:08:08.939Z,9.25
2023-01-04T07:10:35.587Z,6.15
2023-01-04T07:13:02.209Z,7.85
2023-01-04T07:15:38.952Z,7.07
2023-01-04T07:18:08.209Z,7.28
2023-01-04T07:20:34.947Z,8.52
2023-01-04T07:23:01.458Z,7.97
2023-01-04T07:25:28.154Z,8.05
2023-01-04T07:27:55.321Z,8.27
2023-01-04T07:30:23.145Z,8.02
2023-01-04T07:32:51.908Z,6.72
2023-01-04T07:35:18.619Z,9.23
2023-01-04T07:37:45.735Z,8.75
2023-01-04T07:40:12.890Z,10.27
2023-01-04T07:42:39.652Z,7.68
2023-01-04T07:45:07.154Z,8.63
2023-01-04T07:47:33.890Z,8.95
2023-01-04T07:50:00.778Z,7.10
2023-01-04T07:52:27.677Z,6.82
2023-01-04T07:54:54.216Z,8.23
2023-01-04T07:57:20.849Z,6.75
2023-01-04T07:59:47.426Z,8.48
2023-01-04T08:02:14.230Z,5.93
2023-01-04T08:04:40.902Z,8.57
2023-01-04T08:07:07.659Z,6.50
2023-01-04T08:09:34.205Z,8.45
2023-01-04T08:12:00.780Z,7.15
2023-01-04T08:14:27.301Z,6.95
2023-01-04T08:16:53.878Z,7.28
2023-01-04T08:19:21.401Z,7.13
2023-01-04T08:21:48.796Z,6.32
2023-01-04T08:24:18.320Z,7.00
2023-01-04T08:26:46.899Z,6.03
2023-01-04T08:29:14.141Z,4.32
2023-01-04T08:31:41.591Z,5.60
2023-01-04T08:34:09.143Z,4.90
2023-01-04T08:36:46.360Z,5.68
2023-01-04T08:39:12.845Z,6.05
2023-01-04T08:42:04.164Z,3.83
2023-01-04T08:44:37.751Z,6.13
2023-01-04T08:47:04.375Z,4.30
2023-01-04T08:49:32.297Z,3.67
2023-01-04T08:51:58.821Z,3.83
2023-01-04T08:54:25.426Z,3.83
2023-01-04T08:56:52.035Z,3.60
2023-01-04T08:59:18.677Z,3.92
2023-01-04T09:01:46.212Z,4.10
2023-01-04T09:04:14.189Z,4.20
2023-01-04T09:06:40.847Z,3.40
2023-01-04T09:09:07.442Z,3.30
2023-01-04T09:11:35.529Z,3.35
2023-01-04T09:14:08.112Z,3.45
2023-01-04T09:16:36.871Z,4.20
2023-01-04T09:19:04.627Z,4.05
2023-01-04T09:21:31.251Z,4.13
2023-01-04T09:23:58.784Z,4.13
2023-01-04T09:26:26.803Z,3.97
2023-01-04T09:28:55.172Z,3.50
2023-01-04T09:31:24.430Z,4.38
2023-01-04T09:39:05.161Z,5.28
2023-01-04T09:41:38.040Z,4.10
2023-01-04T09:44:12.739Z,5.35
2023-01-04T09:46:47.388Z,4.53
2023-01-04T09:49:16.748Z,3.50
2023-01-04T09:51:51.899Z,4.35
2023-01-04T09:54:20.804Z,4.38
2023-01-04T09:57:00.936Z,3.50
2023-01-04T09:59:32.063Z,3.40
2023-01-04T10:02:11.038Z,3.22
2023-01-04T10:04:48.787Z,3.88
2023-01-04T10:07:27.680Z,3.00
2023-01-04T10:09:55.500Z,4.32
2023-01-04T10:12:33.105Z,3.42
2023-01-04T10:15:34.099Z,3.50
2023-01-04T10:19:51.488Z,5.03
2023-01-04T10:21:35.301Z,3.38
2023-01-04T10:24:30.769Z,3.45
2023-01-04T10:27:09.086Z,4.43
2023-01-04T10:30:21.243Z,4.43
2023-01-04T10:33:11.369Z,2.90
2023-01-04T10:35:40.848Z,2.60
2023-01-04T10:38:17.213Z,2.70
2023-01-04T10:40:46.507Z,3.80
2023-01-04T10:44:11.866Z,3.42
2023-01-04T10:46:51.825Z,4.43
2023-01-04T10:49:28.975Z,4.22
2023-01-04T10:52:16.781Z,4.10
2023-01-04T10:54:50.248Z,6.75
2023-01-04T10:57:37.090Z,4.18
2023-01-04T11:00:18.726Z,5.20
2023-01-04T11:02:52.739Z,4.18
2023-01-04T11:05:32.207Z,4.05
2023-01-04T11:08:16.226Z,3.83
2023-01-04T11:10:50.717Z,4.03
2023-01-04T11:13:17.340Z,5.13
2023-01-04T11:15:45.479Z,9.25
2023-01-04T11:18:14.268Z,4.20
2023-01-04T11:20:41.426Z,3.03
2023-01-04T11:23:14.521Z,3.40
2023-01-04T11:25:55.881Z,5.45
2023-01-04T11:28:33.505Z,4.72
2023-01-04T11:31:12.076Z,5.55
2023-01-04T11:34:00.008Z,5.82
2023-01-04T11:36:41.369Z,4.13
2023-01-04T11:39:19.889Z,4.85
2023-01-04T11:42:03.281Z,4.65
2023-01-04T11:44:35.094Z,5.57
2023-01-04T11:47:23.410Z,4.70
2023-01-04T11:49:52.354Z,5.68
2023-01-04T11:52:30.781Z,6.47
2023-01-04T11:55:20.162Z,5.75
2023-01-04T11:57:49.159Z,5.90
2023-01-04T12:00:17.089Z,5.63
2023-01-04T12:03:01.428Z,7.32
2023-01-04T12:05:33.366Z,7.72
2023-01-04T12:08:09.500Z,6.22
2023-01-04T12:17:08.467Z,5.65
2023-01-04T12:18:52.656Z,4.40
2023-01-04T12:25:44.038Z,5.55
2023-01-04T12:32:05.571Z,6.50
2023-01-04T12:34:32.083Z,8.85
2023-01-04T12:37:06.059Z,8.10
2023-01-04T12:39:45.176Z,7.95
2023-01-04T12:42:15.893Z,6.70
2023-01-04T12:44:51.754Z,4.45
2023-01-04T12:47:37.106Z,8.32
2023-01-04T12:50:13.844Z,9.05
2023-01-04T12:52:55.129Z,8.27
2023-01-04T12:55:33.488Z,8.25
2023-01-04T12:58:34.351Z,18.75
2023-01-04T13:01:23.918Z,9.73
2023-01-04T13:04:00.799Z,6.25
2023-01-04T13:06:37.580Z,6.38
2023-01-04T13:09:16.087Z,8.85
2023-01-04T13:12:26.254Z,10.75
2023-01-04T13:15:01.943Z,8.77
2023-01-04T13:17:29.985Z,9.65
2023-01-04T13:19:56.885Z,9.13
2023-01-04T13:22:29.966Z,6.78
2023-01-04T13:24:59.476Z,8.20
2023-01-04T13:27:26.880Z,7.20
2023-01-04T13:29:53.828Z,10.57
2023-01-04T13:32:29.384Z,6.72
2023-01-04T13:35:13.715Z,6.03
2023-01-04T13:37:44.742Z,6.10
2023-01-04T13:40:17.456Z,10.30
2023-01-04T13:42:49.865Z,10.90
2023-01-04T13:45:22.420Z,10.10
2023-01-04T13:47:57.513Z,9.00
2023-01-04T13:50:27.843Z,6.35
2023-01-04T13:53:06.168Z,8.45
2023-01-04T13:55:36.321Z,8.41
2023-01-04T13:58:15.597Z,10.27
2023-01-04T14:00:46.585Z,9.27
2023-01-04T14:03:28.466Z,7.40
2023-01-04T14:06:04.531Z,9.07
2023-01-04T14:08:36.326Z,8.10
2023-01-04T14:11:13.289Z,7.28
2023-01-04T14:13:46.749Z,6.65
2023-01-04T14:16:15.478Z,12.32
2023-01-04T14:18:42.088Z,7.13
2023-01-04T14:21:18.364Z,8.10
2023-01-04T14:23:45.024Z,8.27
2023-01-04T14:26:31.699Z,8.75
2023-01-04T14:31:32.334Z,7.97
2023-01-04T14:33:59.064Z,6.22
2023-01-04T14:36:27.318Z,7.53
2023-01-04T14:39:06.468Z,12.38
2023-01-04T14:41:52.246Z,9.15
2023-01-04T14:44:21.764Z,8.48
2023-01-04T14:46:50.548Z,9.82
2023-01-04T14:49:17.556Z,7.32
2023-01-04T14:51:45.835Z,9.07
2023-01-04T14:56:44.226Z,10.43
2023-01-04T14:59:10.996Z,8.48
2023-01-04T15:01:37.686Z,14.13
2023-01-04T15:04:05.667Z,5.72
2023-01-04T15:06:33.387Z,10.77
2023-01-04T15:09:00.052Z,7.75
2023-01-04T15:11:26.642Z,8.27
2023-01-04T15:13:53.268Z,11.73
2023-01-04T15:16:19.927Z,6.97
2023-01-04T15:18:47.395Z,11.55
2023-01-04T15:21:14.336Z,11.40
2023-01-04T15:23:41.470Z,10.90
2023-01-04T15:26:10.658Z,16.42
2023-01-04T15:28:37.919Z,11.60
2023-01-04T15:31:13.105Z,10.88
2023-01-04T15:33:40.350Z,11.52
2023-01-04T15:36:17.383Z,14.82
2023-01-04T15:38:47.163Z,9.82
2023-01-04T15:41:36.577Z,12.93
2023-01-04T15:44:04.473Z,13.40
2023-01-04T15:46:31.377Z,14.40
2023-01-04T15:48:57.967Z,12.00
2023-01-04T15:51:24.642Z,12.50
2023-01-04T15:53:53.111Z,12.27
2023-01-04T15:56:20.967Z,12.88
2023-01-04T15:58:47.564Z,12.70
2023-01-04T16:01:16.042Z,16.58
2023-01-04T16:03:44.018Z,15.75
2023-01-04T16:06:15.575Z,15.13
2023-01-04T16:08:42.691Z,15.70
2023-01-04T16:11:21.049Z,14.77
2023-01-04T16:13:49.594Z,14.70
2023-01-04T16:16:16.647Z,15.55
2023-01-04T16:18:48.762Z,17.95
2023-01-04T16:21:16.808Z,14.25
2023-01-04T16:23:43.549Z,13.52
2023-01-04T16:26:15.101Z,16.63
2023-01-04T16:28:41.708Z,14.15
2023-01-04T16:31:09.108Z,14.75
2023-01-04T16:33:36.233Z,18.40
2023-01-04T16:36:08.004Z,14.85
2023-01-04T16:38:39.590Z,22.10
2023-01-04T16:41:07.577Z,14.75
2023-01-04T16:43:43.709Z,19.20
2023-01-04T16:46:13.257Z,17.70
2023-01-04T16:48:44.841Z,17.80
2023-01-04T16:51:11.920Z,14.05
2023-01-04T16:53:38.816Z,16.48
2023-01-04T16:56:11.715Z,13.55
2023-01-04T16:58:39.130Z,13.57
2023-01-04T17:01:11.035Z,15.80
2023-01-04T17:03:37.942Z,18.27
2023-01-04T17:06:14.051Z,18.73
2023-01-04T17:08:40.687Z,15.23
2023-01-04T17:11:50.957Z,19.10
2023-01-04T17:13:56.793Z,19.77
2023-01-04T17:16:25.480Z,15.02
2023-01-04T17:18:55.459Z,18.95
2023-01-04T17:21:33.635Z,18.80
2023-01-04T17:24:01.095Z,19.55
2023-01-04T17:26:30.057Z,15.90
2023-01-04T17:28:58.409Z,14.65
2023-01-04T17:33:53.629Z,18.77
2023-01-04T17:36:21.499Z,14.40
2023-01-04T17:38:48.866Z,14.43
2023-01-04T17:41:16.741Z,17.10
2023-01-04T17:43:44.815Z,17.20
2023-01-04T17:46:22.612Z,17.17
2023-01-04T17:49:17.672Z,17.95
2023-01-04T17:51:39.464Z,17.58
2023-01-04T17:54:07.351Z,15.15
2023-01-04T17:56:34.395Z,17.48
2023-01-04T17:59:02.943Z,14.32
2023-01-04T18:01:30.667Z,16.35
2023-01-04T18:03:58.909Z,16.08
2023-01-04T18:06:29.266Z,17.77
2023-01-04T18:08:57.161Z,35.25
2023-01-04T18:11:24.436Z,28.20
2023-01-04T18:13:52.517Z,16.67
2023-01-04T18:16:25.042Z,17.10
2023-01-04T18:18:59.420Z,17.75
2023-01-04T18:21:30.481Z,20.30
2023-01-04T18:24:34.817Z,18.63
2023-01-04T18:27:20.016Z,19.35
2023-01-04T18:29:34.127Z,21.25
2023-01-04T18:32:01.078Z,19.90
2023-01-04T18:34:27.801Z,21.75
2023-01-04T18:36:54.354Z,17.15
2023-01-04T18:39:21.303Z,22.55
2023-01-04T18:41:47.933Z,20.50
2023-01-04T18:47:04.671Z,25.48
2023-01-04T18:49:31.645Z,17.45
2023-01-04T18:51:58.301Z,22.77
2023-01-04T18:54:25.027Z,21.63
2023-01-04T18:56:57.269Z,28.77
2023-01-04T18:59:27.279Z,23.70
2023-01-04T19:01:54.087Z,27.83
2023-01-04T19:04:20.935Z,21.65
2023-01-04T19:06:47.418Z,22.27
2023-01-04T19:09:14.006Z,26.80
2023-01-04T19:11:40.589Z,22.90
2023-01-04T19:14:07.137Z,38.30
2023-01-04T19:16:33.734Z,34.20
2023-01-04T19:19:00.607Z,28.88
2023-01-04T19:21:27.800Z,23.90
2023-01-04T19:23:54.558Z,23.17
2023-01-04T19:26:21.918Z,21.70
2023-01-04T19:28:48.652Z,21.83
2023-01-04T19:31:16.287Z,19.40
2023-01-04T19:33:43.213Z,21.10
2023-01-04T19:36:12.776Z,23.75
2023-01-04T19:38:39.758Z,22.00
2023-01-04T19:41:07.977Z,17.08
2023-01-04T19:43:35.314Z,22.67
2023-01-04T19:46:02.048Z,22.42
2023-01-04T19:48:28.759Z,21.08
2023-01-04T19:51:07.463Z,15.75
2023-01-04T19:53:34.176Z,20.33
2023-01-04T19:56:00.843Z,22.70
2023-01-04T19:58:27.387Z,21.95
2023-01-04T20:00:55.173Z,17.42
2023-01-04T20:03:23.601Z,18.30
2023-01-04T20:05:51.578Z,17.83
2023-01-04T20:08:18.299Z,21.48
2023-01-04T20:10:44.962Z,20.35
2023-01-04T20:13:11.535Z,19.75
2023-01-04T20:15:39.332Z,19.60
2023-01-04T20:18:13.329Z,15.32
2023-01-04T20:25:47.033Z,18.08
2023-01-04T20:28:15.077Z,17.05
2023-01-04T20:30:42.162Z,15.38
2023-01-04T20:33:09.899Z,18.98
2023-01-04T20:35:41.486Z,25.92
2023-01-04T20:38:08.308Z,22.40
2023-01-04T20:40:36.714Z,23.75
2023-01-04T20:43:21.843Z,21.55
2023-01-04T20:45:48.830Z,15.10
2023-01-04T20:48:15.738Z,22.33
2023-01-04T20:50:43.018Z,17.65
2023-01-04T20:53:11.325Z,23.65
2023-01-04T20:58:11.637Z,19.83
2023-01-04T21:00:39.231Z,21.77
2023-01-04T21:03:08.078Z,18.95
2023-01-04T21:05:40.388Z,21.77
2023-01-04T21:08:07.521Z,22.75
2023-01-04T21:10:35.744Z,22.27
2023-01-04T21:13:03.860Z,19.30
2023-01-04T21:15:30.461Z,17.90
2023-01-04T21:17:57.097Z,21.67
2023-01-04T21:20:24.588Z,20.02
2023-01-04T21:22:51.149Z,18.17
2023-01-04T21:25:17.824Z,17.10
2023-01-04T21:27:44.489Z,18.98
2023-01-04T21:30:11.676Z,21.85
2023-01-04T21:32:38.155Z,23.27
2023-01-04T21:35:05.544Z,19.70
2023-01-04T21:37:32.450Z,19.95
2023-01-04T21:39:59.086Z,17.23
2023-01-04T21:42:25.618Z,19.38
2023-01-04T21:44:52.185Z,17.13
2023-01-04T21:47:18.798Z,16.88
2023-01-04T21:49:45.897Z,16.40
2023-01-04T21:52:12.926Z,16.60
2023-01-04T21:54:39.448Z,15.32
2023-01-04T21:57:08.114Z,16.73
2023-01-04T21:59:36.200Z,20.48
2023-01-04T22:02:03.112Z,18.90
2023-01-04T22:04:30.051Z,16.65
2023-01-04T22:06:56.744Z,18.55
2023-01-04T22:09:23.456Z,20.80
2023-01-04T22:11:50.312Z,23.15
2023-01-04T22:14:17.924Z,21.67
2023-01-04T22:16:44.548Z,19.85
2023-01-04T22:19:15.002Z,18.88
2023-01-04T22:21:42.873Z,17.63
2023-01-04T22:24:13.136Z,20.90
2023-01-04T22:26:40.548Z,19.42
2023-01-04T22:29:07.211Z,24.88
2023-01-04T22:31:34.323Z,14.65
2023-01-04T22:34:01.281Z,15.80
2023-01-04T22:36:27.860Z,19.67
2023-01-04T22:38:56.907Z,19.30
2023-01-04T22:41:26.112Z,19.83
2023-01-04T22:44:05.437Z,19.13
2023-01-04T22:46:33.846Z,17.88
2023-01-04T22:49:01.361Z,20.40
2023-01-04T22:51:28.950Z,15.80
2023-01-04T22:53:57.995Z,15.32
2023-01-04T22:56:24.649Z,24.85
2023-01-04T22:58:54.597Z,21.10
2023-01-04T23:01:27.570Z,21.88
2023-01-04T23:03:55.224Z,20.58
2023-01-04T23:06:23.614Z,19.63
2023-01-04T23:11:21.531Z,19.52
2023-01-04T23:13:48.462Z,22.23
2023-01-04T23:16:16.440Z,15.43
2023-01-04T23:18:43.640Z,19.85
2023-01-04T23:21:10.671Z,20.60
2023-01-04T23:23:37.254Z,22.55
2023-01-04T23:26:06.737Z,20.52
2023-01-04T23:28:37.091Z,12.88
2023-01-04T23:31:06.592Z,16.98
2023-01-04T23:33:36.294Z,21.65
2023-01-04T23:36:26.012Z,25.05
2023-01-04T23:38:55.807Z,17.55
2023-01-04T23:41:43.013Z,18.05
2023-01-04T23:44:25.759Z,15.70
2023-01-04T23:47:00.674Z,21.63
2023-01-04T23:49:29.370Z,16.30
2023-01-04T23:51:56.762Z,18.45
2023-01-04T23:54:23.740Z,18.85
2023-01-04T23:56:51.023Z,20.30
2023-01-04T23:59:18.520Z,21.88
